createdAt,value
2022-11-15T00:00:55.476Z,25.08
2022-11-15T00:03:40.944Z,18.25
2022-11-15T00:06:26.573Z,22.33
2022-11-15T00:09:11.930Z,19.48
2022-11-15T00:11:57.581Z,24.58
2022-11-15T00:14:43.574Z,19.33
2022-11-15T00:17:29.004Z,21.08
2022-11-15T00:20:14.829Z,29.70
2022-11-15T00:23:01.093Z,23.08
2022-11-15T00:25:46.783Z,18.23
2022-11-15T00:28:32.177Z,22.95
2022-11-15T00:31:17.779Z,21.70
2022-11-15T00:34:03.285Z,16.95
2022-11-15T00:36:48.912Z,17.95
2022-11-15T00:39:34.529Z,14.85
2022-11-15T00:42:20.116Z,17.15
2022-11-15T00:45:07.272Z,18.67
2022-11-15T00:47:53.126Z,16.95
2022-11-15T00:50:38.833Z,17.55
2022-11-15T00:53:24.289Z,18.30
2022-11-15T00:56:09.978Z,14.35
2022-11-15T00:58:55.615Z,17.90
2022-11-15T01:01:40.959Z,20.27
2022-11-15T01:04:26.408Z,16.75
2022-11-15T01:07:12.591Z,21.63
2022-11-15T01:09:57.964Z,15.70
2022-11-15T01:12:43.351Z,13.07
2022-11-15T01:15:28.778Z,13.10
2022-11-15T01:18:14.455Z,14.70
2022-11-15T01:20:59.736Z,13.35
2022-11-15T01:23:45.958Z,15.13
2022-11-15T01:26:31.689Z,11.75
2022-11-15T01:29:17.320Z,18.02
2022-11-15T01:32:03.673Z,11.38
2022-11-15T01:34:49.414Z,15.77
2022-11-15T01:37:35.070Z,14.98
2022-11-15T01:40:20.296Z,16.13
2022-11-15T01:43:27.573Z,15.70
2022-11-15T01:46:24.021Z,15.05
2022-11-15T01:49:18.669Z,15.20
2022-11-15T01:52:12.260Z,15.27
2022-11-15T01:55:06.543Z,14.73
2022-11-15T01:57:58.149Z,12.25
2022-11-15T02:00:44.168Z,15.40
2022-11-15T02:03:40.829Z,12.90
2022-11-15T02:06:26.308Z,11.70
2022-11-15T02:09:13.383Z,15.35
2022-11-15T02:12:00.180Z,14.07
2022-11-15T02:14:52.965Z,14.82
2022-11-15T02:18:08.415Z,15.13
2022-11-15T02:21:22.157Z,14.50
2022-11-15T02:24:25.983Z,13.30
2022-11-15T02:27:32.465Z,12.77
2022-11-15T02:30:39.072Z,10.25
2022-11-15T02:33:45.566Z,14.48
2022-11-15T02:36:43.773Z,15.15
2022-11-15T02:39:52.223Z,11.73
2022-11-15T02:43:07.948Z,12.32
2022-11-15T02:46:19.619Z,16.05
2022-11-15T02:49:05.809Z,11.98
2022-11-15T02:51:52.969Z,13.35
2022-11-15T02:54:38.413Z,10.52
2022-11-15T02:57:43.320Z,13.75
2022-11-15T03:00:36.164Z,9.13
2022-11-15T03:03:44.946Z,16.17
2022-11-15T03:06:53.173Z,12.90
2022-11-15T03:09:57.991Z,10.52
2022-11-15T03:12:53.169Z,14.40
2022-11-15T03:15:43.888Z,13.40
2022-11-15T03:18:52.866Z,13.48
2022-11-15T03:21:40.608Z,11.60
2022-11-15T03:24:28.111Z,13.75
2022-11-15T03:27:18.541Z,14.45
2022-11-15T03:30:08.007Z,12.50
2022-11-15T03:32:57.930Z,11.35
2022-11-15T03:35:45.793Z,8.18
2022-11-15T03:38:34.158Z,17.27
2022-11-15T03:41:31.964Z,11.15
2022-11-15T03:44:24.761Z,14.23
2022-11-15T03:47:37.365Z,12.30
2022-11-15T03:50:25.155Z,11.52
2022-11-15T03:53:11.390Z,11.07
2022-11-15T03:55:57.544Z,8.18
2022-11-15T03:58:43.350Z,12.52
2022-11-15T04:01:29.209Z,15.32
2022-11-15T04:04:14.730Z,9.90
2022-11-15T04:07:00.354Z,11.75
2022-11-15T04:10:04.254Z,15.65
2022-11-15T04:12:49.603Z,11.88
2022-11-15T04:15:35.679Z,9.38
2022-11-15T04:18:21.741Z,9.60
2022-11-15T04:21:26.040Z,12.13
2022-11-15T04:24:14.491Z,10.07
2022-11-15T04:27:00.455Z,9.70
2022-11-15T04:29:46.609Z,10.73
2022-11-15T04:32:32.289Z,8.93
2022-11-15T04:35:20.307Z,10.00
2022-11-15T04:38:08.515Z,11.00
2022-11-15T04:40:54.098Z,12.10
2022-11-15T04:43:39.801Z,10.60
2022-11-15T04:46:26.169Z,11.80
2022-11-15T04:49:11.882Z,12.73
2022-11-15T04:51:57.505Z,10.10
2022-11-15T04:54:43.697Z,9.95
2022-11-15T04:57:31.297Z,12.40
2022-11-15T05:00:18.384Z,9.57
2022-11-15T05:03:22.792Z,10.13
2022-11-15T05:06:08.523Z,12.35
2022-11-15T05:08:56.930Z,9.75
2022-11-15T05:11:45.473Z,10.63
2022-11-15T05:14:31.827Z,14.13
2022-11-15T05:17:19.881Z,9.45
2022-11-15T05:20:07.018Z,11.27
2022-11-15T05:22:53.447Z,9.70
2022-11-15T05:25:41.477Z,8.98
2022-11-15T05:28:27.981Z,9.65
2022-11-15T05:31:18.550Z,12.35
2022-11-15T05:34:06.413Z,11.15
2022-11-15T05:36:52.433Z,11.50
2022-11-15T05:39:38.148Z,8.52
2022-11-15T05:42:27.487Z,9.32
2022-11-15T05:45:13.369Z,11.82
2022-11-15T05:48:01.353Z,10.52
2022-11-15T05:50:51.336Z,10.63
2022-11-15T05:53:38.457Z,10.05
2022-11-15T05:56:26.607Z,8.88
2022-11-15T05:59:13.057Z,7.53
2022-11-15T06:01:58.858Z,12.20
2022-11-15T06:04:44.571Z,7.57
2022-11-15T06:07:33.569Z,11.05
2022-11-15T06:10:19.596Z,14.40
2022-11-15T06:13:05.930Z,8.38
2022-11-15T06:15:51.885Z,13.38
2022-11-15T06:18:38.441Z,9.10
2022-11-15T06:21:24.123Z,7.28
2022-11-15T06:24:09.900Z,9.98
2022-11-15T06:26:55.776Z,7.30
2022-11-15T06:29:41.545Z,9.38
2022-11-15T06:32:33.147Z,9.13
2022-11-15T06:35:19.298Z,10.40
2022-11-15T06:38:11.033Z,13.98
2022-11-15T06:41:01.852Z,10.02
2022-11-15T06:43:47.819Z,7.55
2022-11-15T06:46:33.701Z,9.32
2022-11-15T06:49:19.395Z,6.05
2022-11-15T06:52:05.451Z,10.05
2022-11-15T06:54:50.766Z,6.72
2022-11-15T06:57:37.506Z,10.25
2022-11-15T07:00:24.485Z,11.85
2022-11-15T07:03:10.267Z,8.57
2022-11-15T07:06:02.743Z,8.85
2022-11-15T07:08:52.083Z,7.05
2022-11-15T07:11:37.660Z,9.07
2022-11-15T07:14:23.177Z,7.10
2022-11-15T07:17:08.758Z,7.93
2022-11-15T07:19:54.646Z,10.77
2022-11-15T07:22:43.347Z,8.30
2022-11-15T07:25:29.469Z,7.95
2022-11-15T07:28:15.296Z,8.43
2022-11-15T07:31:05.037Z,9.57
2022-11-15T07:33:50.543Z,5.60
2022-11-15T07:36:36.036Z,7.32
2022-11-15T07:39:22.041Z,9.32
2022-11-15T07:42:26.179Z,6.45
2022-11-15T07:45:12.087Z,8.20
2022-11-15T07:47:58.190Z,9.18
2022-11-15T07:50:44.184Z,6.30
2022-11-15T07:53:30.164Z,6.60
2022-11-15T07:56:16.067Z,5.50
2022-11-15T07:59:02.024Z,7.18
2022-11-15T08:01:47.775Z,5.88
2022-11-15T08:04:33.678Z,6.50
2022-11-15T08:07:19.583Z,8.52
2022-11-15T08:10:06.961Z,5.05
2022-11-15T08:13:07.299Z,11.48
2022-11-15T08:15:57.605Z,8.50
2022-11-15T08:18:44.526Z,7.03
2022-11-15T08:21:30.163Z,6.00
2022-11-15T08:24:16.325Z,7.80
2022-11-15T08:27:01.993Z,15.52
2022-11-15T08:29:49.968Z,4.28
2022-11-15T08:32:35.978Z,8.77
2022-11-15T08:35:26.282Z,6.95
2022-11-15T08:38:14.872Z,6.25
2022-11-15T08:41:05.764Z,6.15
2022-11-15T08:43:51.638Z,23.83
2022-11-15T08:46:37.230Z,9.98
2022-11-15T08:49:22.858Z,7.10
2022-11-15T08:52:08.774Z,5.40
2022-11-15T08:54:54.594Z,6.03
2022-11-15T08:57:40.569Z,5.45
2022-11-15T09:00:26.403Z,8.57
2022-11-15T09:03:12.085Z,9.27
2022-11-15T09:06:00.378Z,6.03
2022-11-15T09:08:47.894Z,5.88
2022-11-15T09:11:34.004Z,7.22
2022-11-15T09:14:19.544Z,7.07
2022-11-15T09:17:09.623Z,6.60
2022-11-15T09:19:55.586Z,4.72
2022-11-15T09:22:41.252Z,4.53
2022-11-15T09:25:26.960Z,6.03
2022-11-15T09:28:12.318Z,6.65
2022-11-15T09:30:59.914Z,3.53
2022-11-15T09:33:48.768Z,5.15
2022-11-15T09:36:34.677Z,5.28
2022-11-15T09:39:20.806Z,5.38
2022-11-15T09:42:22.755Z,10.77
2022-11-15T09:45:08.127Z,4.22
2022-11-15T09:48:13.328Z,5.25
2022-11-15T09:50:59.856Z,2.65
2022-11-15T09:54:37.397Z,3.22
2022-11-15T09:56:42.439Z,4.60
2022-11-15T09:59:32.676Z,2.30
2022-11-15T10:02:11.753Z,4.75
2022-11-15T10:04:40.637Z,4.55
2022-11-15T10:07:27.049Z,3.30
2022-11-15T10:10:11.927Z,2.67
2022-11-15T10:12:39.836Z,4.13
2022-11-15T10:15:14.079Z,3.33
2022-11-15T10:17:59.078Z,3.42
2022-11-15T10:20:28.787Z,1.88
2022-11-15T10:23:08.132Z,3.67
2022-11-15T10:25:35.765Z,2.53
2022-11-15T10:28:15.089Z,3.13
2022-11-15T10:31:03.147Z,2.28
2022-11-15T10:33:35.713Z,3.28
2022-11-15T10:36:26.606Z,3.63
2022-11-15T10:38:56.235Z,1.58
2022-11-15T10:41:30.572Z,1.98
2022-11-15T10:44:20.049Z,6.97
2022-11-15T10:47:04.395Z,2.58
2022-11-15T10:49:33.896Z,1.05
2022-11-15T10:52:18.578Z,1.02
2022-11-15T10:54:49.574Z,2.05
2022-11-15T10:57:23.811Z,2.80
2022-11-15T10:59:54.302Z,1.25
2022-11-15T11:02:40.028Z,2.47
2022-11-15T11:05:28.075Z,2.88
2022-11-15T11:08:04.706Z,7.05
2022-11-15T11:13:25.602Z,2.17
2022-11-15T11:16:16.057Z,1.63
2022-11-15T11:18:55.177Z,1.10
2022-11-15T11:21:49.736Z,0.88
2022-11-15T11:24:42.021Z,2.10
2022-11-15T11:27:35.250Z,1.98
2022-11-15T11:30:08.416Z,6.93
2022-11-15T11:32:59.421Z,10.82
2022-11-15T11:36:20.493Z,1.15
2022-11-15T11:39:00.508Z,2.40
2022-11-15T11:41:58.295Z,1.95
2022-11-15T11:44:35.460Z,1.55
2022-11-15T11:47:05.230Z,1.48
2022-11-15T11:49:36.924Z,1.50
2022-11-15T11:52:13.643Z,4.30
2022-11-15T11:54:59.637Z,3.47
2022-11-15T11:57:49.826Z,7.22
2022-11-15T12:00:22.716Z,1.15
2022-11-15T12:03:06.636Z,4.07
2022-11-15T12:05:38.812Z,1.65
2022-11-15T12:08:34.325Z,4.93
2022-11-15T12:11:23.026Z,4.63
2022-11-15T12:13:58.890Z,3.42
2022-11-15T12:16:31.136Z,3.08
2022-11-15T12:19:02.368Z,1.27
2022-11-15T12:21:56.973Z,1.35
2022-11-15T12:24:34.768Z,3.13
2022-11-15T12:27:20.550Z,1.38
2022-11-15T12:29:55.583Z,6.22
2022-11-15T12:32:50.024Z,6.15
2022-11-15T12:35:31.977Z,2.55
2022-11-15T12:37:59.109Z,2.38
2022-11-15T12:40:27.165Z,2.45
2022-11-15T12:43:45.514Z,4.03
2022-11-15T12:46:23.324Z,2.25
2022-11-15T12:48:53.136Z,1.77
2022-11-15T12:52:00.870Z,1.02
2022-11-15T12:54:30.112Z,1.83
2022-11-15T12:57:09.957Z,3.22
2022-11-15T12:59:53.080Z,2.38
2022-11-15T13:02:27.639Z,2.35
2022-11-15T13:05:16.234Z,3.42
2022-11-15T13:07:43.222Z,1.90
2022-11-15T13:10:14.491Z,3.28
2022-11-15T13:12:47.655Z,2.63
2022-11-15T13:15:14.598Z,1.38
2022-11-15T13:17:48.946Z,3.95
2022-11-15T13:20:15.869Z,1.60
2022-11-15T13:22:52.053Z,1.75
2022-11-15T13:25:37.187Z,1.17
2022-11-15T13:28:25.836Z,1.27
2022-11-15T13:30:55.943Z,1.17
2022-11-15T13:33:35.677Z,0.90
2022-11-15T13:36:05.381Z,3.22
2022-11-15T13:38:35.439Z,2.13
2022-11-15T13:41:15.220Z,1.08
2022-11-15T13:43:42.205Z,0.98
2022-11-15T13:46:14.054Z,2.67
2022-11-15T13:51:32.314Z,2.78
2022-11-15T13:54:09.252Z,5.35
2022-11-15T13:56:37.752Z,3.10
2022-11-15T14:00:15.355Z,2.80
2022-11-15T14:02:42.406Z,4.22
2022-11-15T14:05:23.584Z,1.13
2022-11-15T14:08:15.654Z,3.40
2022-11-15T14:13:31.905Z,1.73
2022-11-15T14:16:20.340Z,2.85
2022-11-15T14:18:52.448Z,2.30
2022-11-15T14:21:21.907Z,2.45
2022-11-15T14:23:50.151Z,1.17
2022-11-15T14:26:46.189Z,1.20
2022-11-15T14:29:46.497Z,2.42
2022-11-15T14:32:27.049Z,1.67
2022-11-15T14:35:02.693Z,1.20
2022-11-15T14:37:39.070Z,1.27
2022-11-15T14:40:13.629Z,1.33
2022-11-15T14:42:44.173Z,1.90
2022-11-15T14:45:16.230Z,2.58
2022-11-15T14:47:44.500Z,2.30
2022-11-15T14:50:20.677Z,2.90
2022-11-15T14:52:49.238Z,1.55
2022-11-15T14:55:24.335Z,3.97
2022-11-15T14:57:51.950Z,1.70
2022-11-15T15:00:20.107Z,2.60
2022-11-15T15:02:48.652Z,1.77
2022-11-15T15:05:46.491Z,6.75
2022-11-15T15:08:16.924Z,4.50
2022-11-15T15:10:46.086Z,0.50
2022-11-15T15:13:24.019Z,1.10
2022-11-15T15:15:53.497Z,1.90
2022-11-15T15:18:21.363Z,3.10
2022-11-15T15:21:05.334Z,2.28
2022-11-15T15:23:32.534Z,3.78
2022-11-15T15:25:59.800Z,3.70
2022-11-15T15:28:34.844Z,3.03
2022-11-15T15:31:03.200Z,1.25
2022-11-15T15:33:30.516Z,3.38
2022-11-15T15:35:57.529Z,2.40
2022-11-15T15:38:26.026Z,0.85
2022-11-15T15:40:53.028Z,1.15
2022-11-15T15:43:19.922Z,0.88
2022-11-15T15:45:47.536Z,2.33
2022-11-15T15:48:16.646Z,1.75
2022-11-15T15:50:44.242Z,1.92
2022-11-15T15:53:12.361Z,2.47
2022-11-15T15:55:39.434Z,1.02
2022-11-15T15:58:07.235Z,4.63
2022-11-15T16:00:34.896Z,7.20
2022-11-15T16:03:01.937Z,4.28
2022-11-15T16:05:28.962Z,8.23
2022-11-15T16:07:58.547Z,2.78
2022-11-15T16:10:31.989Z,4.63
2022-11-15T16:12:59.303Z,1.90
2022-11-15T16:15:34.956Z,3.10
2022-11-15T16:18:03.068Z,2.00
2022-11-15T16:20:46.578Z,2.38
2022-11-15T16:23:15.852Z,0.77
2022-11-15T16:25:50.309Z,3.33
2022-11-15T16:28:23.109Z,1.90
2022-11-15T16:30:59.715Z,8.80
2022-11-15T16:33:26.659Z,1.65
2022-11-15T16:35:53.809Z,1.70
2022-11-15T16:38:20.979Z,1.92
2022-11-15T16:40:47.969Z,3.08
2022-11-15T16:43:20.653Z,10.20
2022-11-15T16:45:47.676Z,2.47
2022-11-15T16:48:28.502Z,2.72
2022-11-15T16:50:57.572Z,1.75
2022-11-15T16:53:28.098Z,4.60
2022-11-15T16:55:56.356Z,2.95
2022-11-15T16:58:23.875Z,2.25
2022-11-15T17:00:53.196Z,4.22
2022-11-15T17:03:21.125Z,2.97
2022-11-15T17:05:48.208Z,4.03
2022-11-15T17:08:15.114Z,3.42
2022-11-15T17:10:42.396Z,1.30
2022-11-15T17:13:15.310Z,1.35
2022-11-15T17:15:42.424Z,2.17
2022-11-15T17:18:15.899Z,1.90
2022-11-15T17:20:43.417Z,1.75
2022-11-15T17:23:14.897Z,2.60
2022-11-15T17:25:42.529Z,1.65
2022-11-15T17:28:10.127Z,1.25
2022-11-15T17:30:37.081Z,2.35
2022-11-15T17:33:05.146Z,3.53
2022-11-15T17:35:32.029Z,2.33
2022-11-15T17:37:58.862Z,1.73
2022-11-15T17:40:25.847Z,3.55
2022-11-15T17:42:53.398Z,2.13
2022-11-15T17:45:20.213Z,2.72
2022-11-15T17:47:47.390Z,2.05
2022-11-15T17:50:14.675Z,2.53
2022-11-15T17:52:41.835Z,4.82
2022-11-15T17:55:09.288Z,2.17
2022-11-15T17:57:36.196Z,1.13
2022-11-15T18:00:04.944Z,3.58
2022-11-15T18:02:31.821Z,4.18
2022-11-15T18:04:58.947Z,2.83
2022-11-15T18:07:26.462Z,2.55
2022-11-15T18:09:53.846Z,2.30
2022-11-15T18:12:20.877Z,1.70
2022-11-15T18:14:47.985Z,3.78
2022-11-15T18:17:18.176Z,2.75
2022-11-15T18:19:48.676Z,5.70
2022-11-15T18:22:15.785Z,1.98
2022-11-15T18:24:45.025Z,4.75
2022-11-15T18:27:11.956Z,2.35
2022-11-15T18:29:38.956Z,1.98
2022-11-15T18:32:11.689Z,3.17
2022-11-15T18:34:39.159Z,3.55
2022-11-15T18:37:06.506Z,3.65
2022-11-15T18:39:34.940Z,4.85
2022-11-15T18:42:02.249Z,3.17
2022-11-15T18:44:30.588Z,4.10
2022-11-15T18:46:58.494Z,4.18
2022-11-15T18:49:25.462Z,3.58
2022-11-15T18:51:52.748Z,2.40
2022-11-15T18:54:19.747Z,2.78
2022-11-15T18:56:47.316Z,2.70
2022-11-15T18:59:15.321Z,3.65
2022-11-15T19:01:48.992Z,2.95
2022-11-15T19:04:18.769Z,2.65
2022-11-15T19:06:47.689Z,5.18
2022-11-15T19:09:17.634Z,3.13
2022-11-15T19:11:47.533Z,2.55
2022-11-15T19:14:17.369Z,2.58
2022-11-15T19:16:50.113Z,7.45
2022-11-15T19:19:20.761Z,3.28
2022-11-15T19:21:47.874Z,1.98
2022-11-15T19:24:15.408Z,5.38
2022-11-15T19:26:42.953Z,3.00
2022-11-15T19:29:10.838Z,4.30
2022-11-15T19:31:38.595Z,3.58
2022-11-15T19:34:06.896Z,3.47
2022-11-15T19:36:39.437Z,2.00
2022-11-15T19:39:10.077Z,9.20
2022-11-15T19:41:38.841Z,4.35
2022-11-15T19:44:07.125Z,3.30
2022-11-15T19:46:34.665Z,2.58
2022-11-15T19:49:01.972Z,3.20
2022-11-15T19:51:30.968Z,3.40
2022-11-15T19:54:06.663Z,4.30
2022-11-15T19:56:35.144Z,2.78
2022-11-15T19:59:02.925Z,5.50
2022-11-15T20:01:31.920Z,4.90
2022-11-15T20:03:59.986Z,7.57
2022-11-15T20:06:29.979Z,3.67
2022-11-15T20:08:57.632Z,3.63
2022-11-15T20:11:26.798Z,4.57
2022-11-15T20:13:58.753Z,4.70
2022-11-15T20:16:26.524Z,4.63
2022-11-15T20:18:54.081Z,2.45
2022-11-15T20:21:22.140Z,3.42
2022-11-15T20:23:53.163Z,4.15
2022-11-15T20:26:21.017Z,4.17
2022-11-15T20:28:51.840Z,4.97
2022-11-15T20:31:20.711Z,5.07
2022-11-15T20:33:52.033Z,7.47
2022-11-15T20:36:19.030Z,5.35
2022-11-15T20:38:46.176Z,3.45
2022-11-15T20:41:15.226Z,5.93
2022-11-15T20:43:44.054Z,4.03
2022-11-15T20:46:12.918Z,3.38
2022-11-15T20:48:40.666Z,5.30
2022-11-15T20:51:15.198Z,3.72
2022-11-15T20:53:45.002Z,3.80
2022-11-15T20:56:19.192Z,3.10
2022-11-15T20:58:48.775Z,3.95
2022-11-15T21:01:17.955Z,5.68
2022-11-15T21:03:47.661Z,5.88
2022-11-15T21:06:15.455Z,3.75
2022-11-15T21:09:00.648Z,4.03
2022-11-15T21:11:46.352Z,3.75
2022-11-15T21:14:13.395Z,5.30
2022-11-15T21:16:40.453Z,5.32
2022-11-15T21:19:07.850Z,4.60
2022-11-15T21:21:36.797Z,3.13
2022-11-15T21:24:05.975Z,5.22
2022-11-15T21:26:34.160Z,6.38
2022-11-15T21:29:02.536Z,6.85
2022-11-15T21:31:30.151Z,7.70
2022-11-15T21:33:57.076Z,3.05
2022-11-15T21:36:25.148Z,5.63
2022-11-15T21:38:52.636Z,2.95
2022-11-15T21:41:19.657Z,4.75
2022-11-15T21:43:46.943Z,3.70
2022-11-15T21:46:14.011Z,3.92
2022-11-15T21:48:44.569Z,3.97
2022-11-15T21:51:13.534Z,3.65
2022-11-15T21:53:40.492Z,4.05
2022-11-15T21:56:08.447Z,6.63
2022-11-15T21:58:36.229Z,3.33
2022-11-15T22:01:23.080Z,4.93
2022-11-15T22:03:50.397Z,3.42
2022-11-15T22:06:18.396Z,4.00
2022-11-15T22:08:46.631Z,5.82
2022-11-15T22:11:15.642Z,6.13
2022-11-15T22:13:43.057Z,4.28
2022-11-15T22:16:10.217Z,6.43
2022-11-15T22:18:38.064Z,4.28
2022-11-15T22:21:10.361Z,5.25
2022-11-15T22:23:38.113Z,3.92
2022-11-15T22:26:05.821Z,6.75
2022-11-15T22:28:34.009Z,3.80
2022-11-15T22:31:01.734Z,4.03
2022-11-15T22:33:30.825Z,3.67
2022-11-15T22:35:58.110Z,4.18
2022-11-15T22:38:25.793Z,4.50
2022-11-15T22:40:52.918Z,6.38
2022-11-15T22:43:22.245Z,6.28
2022-11-15T22:45:53.805Z,3.53
2022-11-15T22:48:23.020Z,6.07
2022-11-15T22:50:51.041Z,4.00
2022-11-15T22:53:18.636Z,4.93
2022-11-15T22:55:53.422Z,4.35
2022-11-15T22:58:25.045Z,5.05
2022-11-15T23:00:54.497Z,7.53
2022-11-15T23:03:22.647Z,4.68
2022-11-15T23:05:49.852Z,3.58
2022-11-15T23:08:21.214Z,4.65
2022-11-15T23:11:06.929Z,4.32
2022-11-15T23:13:33.916Z,3.60
2022-11-15T23:16:46.233Z,3.55
2022-11-15T23:19:13.516Z,4.20
2022-11-15T23:22:04.516Z,3.85
2022-11-15T23:24:34.671Z,4.63
2022-11-15T23:27:09.719Z,3.45
2022-11-15T23:29:55.903Z,4.68
2022-11-15T23:32:41.838Z,3.53
2022-11-15T23:35:08.926Z,5.03
2022-11-15T23:37:36.131Z,2.40
2022-11-15T23:40:03.237Z,5.55
2022-11-15T23:42:30.407Z,3.70
2022-11-15T23:44:57.294Z,3.47
2022-11-15T23:47:26.439Z,3.38
2022-11-15T23:49:53.339Z,3.58
2022-11-15T23:52:23.022Z,4.60
2022-11-15T23:54:50.275Z,6.15
2022-11-15T23:57:18.625Z,2.47
2022-11-15T23:59:45.508Z,4.13
